Terminal Aerodrome Forecast
Issued by NWS

Home | Current Version | Previous Version | Graphics & Text | Print | Product List | Glossary On
Versions: 1 2 3 4 5 6 7 8 9 10 11 12 13 14 15 16 17 18 19
000
FTUS43 KBIS 242100 AAA
TAFMOT
TAF AMD
KMOT 242128Z 2421/2518 05011KT 2SM -RA OVC009
     FM242300 34014KT 1SM -RASN OVC007
     FM250000 30017G25KT 2SM -RASN OVC007
     FM250200 31021G30KT 2SM -SN OVC005
     FM250800 32023G32KT P6SM OVC012=

USA.gov is the U.S. government's official web portal to all federal, state and local government web resources and services.